Time;durP1;ratioP1;P1;durP2;ratioP2;P2;SDS_P1;SDS_P2;PMS_P1;PMS_P2;Temp;Humidity;BMP_temperature;BMP_pressure;BME280_temperature;BME280_humidity;BME280_pressure;Samples;Min_cycle;Max_cycle;Signal;HPM_P1;HPM_P2
2020/12/17 00:00:09;;;;;;;19.77;11.27;;;;;;;5.89;72.36;101642.22;683330;28;21554;-63
2020/12/17 00:00:30;;;;;;;18.45;11.32;;;;;;;5.92;72.24;101639.31;682534;28;44415;-61
2020/12/17 00:00:52;;;;;;;18.85;11.18;;;;;;;5.95;72.13;101642.59;683526;28;22250;-60
2020/12/17 00:01:13;;;;;;;18.80;11.25;;;;;;;5.95;72.10;101639.91;682452;28;46337;-61
2020/12/17 00:01:35;;;;;;;18.77;10.90;;;;;;;5.95;72.13;101639.91;683534;28;22378;-63
2020/12/17 00:01:57;;;;;;;19.98;11.02;;;;;;;5.96;72.09;101643.47;682437;28;46340;-64
2020/12/17 00:02:18;;;;;;;18.33;10.88;;;;;;;5.97;71.95;101633.59;682634;28;44156;-63
2020/12/17 00:02:40;;;;;;;18.38;11.13;;;;;;;5.97;71.78;101636.28;683314;28;23359;-63
2020/12/17 00:03:01;;;;;;;15.80;10.60;;;;;;;5.98;71.77;101641.53;682867;28;38387;-62
2020/12/17 00:03:23;;;;;;;17.50;11.05;;;;;;;5.99;71.87;101635.19;682838;28;46203;-61
2020/12/17 00:03:44;;;;;;;20.00;11.27;;;;;;;5.99;71.72;101637.88;682546;28;44365;-64
2020/12/17 00:04:05;;;;;;;20.58;11.30;;;;;;;5.99;71.81;101631.63;683264;28;22422;-63
2020/12/17 00:04:27;;;;;;;19.38;11.55;;;;;;;6.01;71.96;101643.97;683654;28;22414;-63
2020/12/17 00:04:48;;;;;;;18.33;11.40;;;;;;;6.03;72.08;101633.94;683524;28;44404;-64
2020/12/17 00:05:10;;;;;;;16.27;10.77;;;;;;;6.02;71.85;101640.31;686046;28;22144;-63
2020/12/17 00:05:31;;;;;;;15.48;10.68;;;;;;;6.02;71.85;101642.13;687135;28;46356;-64
2020/12/17 00:05:53;;;;;;;17.80;11.05;;;;;;;6.02;71.96;101636.75;688462;28;21475;-64
2020/12/17 00:06:14;;;;;;;19.58;11.73;;;;;;;5.97;72.01;101637.13;687475;28;46313;-64
2020/12/17 00:06:35;;;;;;;17.70;10.70;;;;;;;5.98;71.73;101632.63;688443;28;22405;-61
2020/12/17 00:06:57;;;;;;;18.65;10.95;;;;;;;5.95;71.97;101631.00;688230;28;23646;-63
2020/12/17 00:07:18;;;;;;;17.67;11.30;;;;;;;5.95;72.06;101639.91;687295;28;45260;-63
2020/12/17 00:07:41;;;;;;;16.98;10.57;;;;;;;5.98;71.89;101635.31;686098;28;23479;-63
2020/12/17 00:08:02;;;;;;;16.80;10.73;;;;;;;5.99;71.79;101637.00;685443;28;45159;-63
2020/12/17 00:08:23;;;;;;;17.52;11.00;;;;;;;5.99;71.90;101635.19;685209;28;45245;-64
2020/12/17 00:08:45;;;;;;;18.90;10.80;;;;;;;6.01;71.69;101638.59;685888;28;21543;-64
2020/12/17 00:09:06;;;;;;;18.30;11.32;;;;;;;6.01;71.68;101646.63;685182;28;46316;-61
2020/12/17 00:09:28;;;;;;;17.38;11.00;;;;;;;5.98;71.80;101643.38;686521;28;3164;-62
2020/12/17 00:09:49;;;;;;;17.45;11.02;;;;;;;6.00;71.80;101636.03;684983;28;46376;-62
2020/12/17 00:10:12;;;;;;;16.20;10.68;;;;;;;6.01;71.82;101638.59;686004;28;21572;-63
2020/12/17 00:10:36;;;;;;;16.27;10.95;;;;;;;6.02;71.97;101632.25;684596;28;61464;-61
2020/12/17 00:10:58;;;;;;;17.35;11.07;;;;;;;6.00;71.82;101636.03;683366;28;92292;-63
2020/12/17 00:11:19;;;;;;;18.50;11.25;;;;;;;5.99;71.80;101628.97;685036;28;47307;-61
2020/12/17 00:11:41;;;;;;;17.02;11.15;;;;;;;5.97;71.97;101637.13;686204;28;17627;-61
2020/12/17 00:12:02;;;;;;;15.73;11.10;;;;;;;5.94;71.93;101630.16;686320;28;12120;-63
2020/12/17 00:12:24;;;;;;;18.67;11.02;;;;;;;5.95;71.82;101631.00;685157;28;45029;-63
2020/12/17 00:12:46;;;;;;;18.20;11.35;;;;;;;5.99;71.74;101631.63;685500;28;39276;-61
2020/12/17 00:13:07;;;;;;;17.38;11.18;;;;;;;5.98;71.88;101632.63;685058;28;44419;-62
2020/12/17 00:13:29;;;;;;;19.38;11.40;;;;;;;6.00;71.69;101633.34;686189;28;22496;-62
2020/12/17 00:13:51;;;;;;;16.85;10.80;;;;;;;6.00;71.65;101636.88;685202;28;45098;-63
2020/12/17 00:14:13;;;;;;;16.38;10.90;;;;;;;6.01;71.53;101635.91;685265;28;44199;-63
2020/12/17 00:14:34;;;;;;;18.73;11.07;;;;;;;6.01;71.60;101635.91;685377;28;46584;-61
2020/12/17 00:14:55;;;;;;;17.52;11.00;;;;;;;5.98;71.69;101638.00;683600;28;19472;-62
2020/12/17 00:15:19;;;;;;;17.23;11.02;;;;;;;6.00;71.77;101630.66;686167;28;903;-63
2020/12/17 00:15:40;;;;;;;21.27;11.60;;;;;;;6.02;71.79;101629.59;684575;28;63474;-63
2020/12/17 00:16:01;;;;;;;18.40;11.13;;;;;;;6.02;71.60;101624.22;684885;28;46681;-63
2020/12/17 00:16:23;;;;;;;17.10;11.07;;;;;;;6.01;71.38;101633.22;686488;28;855;-63
2020/12/17 00:16:44;;;;;;;18.42;11.18;;;;;;;6.03;71.58;101623.22;685792;28;21557;-64
2020/12/17 00:17:05;;;;;;;19.75;11.63;;;;;;;6.05;71.46;101620.41;684661;28;23447;-63
2020/12/17 00:17:27;;;;;;;16.83;11.18;;;;;;;6.04;71.66;101621.41;684042;28;23465;-63
2020/12/17 00:17:50;;;;;;;17.37;11.10;;;;;;;6.04;71.61;101624.94;684568;28;22511;-63
2020/12/17 00:18:11;;;;;;;17.55;11.55;;;;;;;6.05;71.82;101623.09;682197;28;80460;-63
2020/12/17 00:18:32;;;;;;;18.83;10.88;;;;;;;6.03;71.90;101617.84;683769;28;44277;-62
2020/12/17 00:18:53;;;;;;;18.67;10.75;;;;;;;6.03;71.69;101623.22;684264;28;21543;-62
2020/12/17 00:19:15;;;;;;;18.25;10.88;;;;;;;6.05;71.71;101621.28;683769;28;22374;-62
2020/12/17 00:19:36;;;;;;;20.50;10.90;;;;;;;6.05;71.53;101621.28;682654;28;45246;-63
2020/12/17 00:19:58;;;;;;;21.65;11.45;;;;;;;6.05;71.42;101617.72;683358;28;23303;-63
2020/12/17 00:20:20;;;;;;;17.92;11.00;;;;;;;6.02;71.68;101628.72;682532;28;44417;-61
2020/12/17 00:20:41;;;;;;;16.80;11.18;;;;;;;6.04;71.67;101616.03;682490;28;46469;-63
2020/12/17 00:21:03;;;;;;;16.45;10.85;;;;;;;6.03;71.62;101614.34;683050;28;21547;-63
2020/12/17 00:21:24;;;;;;;17.55;11.07;;;;;;;6.02;71.47;101615.31;683394;28;22125;-63
2020/12/17 00:21:46;;;;;;;19.77;11.70;;;;;;;6.03;71.40;101617.00;682496;28;46414;-60
2020/12/17 00:22:07;;;;;;;16.70;10.90;;;;;;;6.02;71.58;101620.66;683508;28;16755;-61
2020/12/17 00:22:32;;;;;;;16.40;10.77;;;;;;;6.02;71.57;101612.63;682902;28;38384;-64
2020/12/17 00:22:54;;;;;;;18.13;11.02;;;;;;;6.02;71.63;101618.84;683112;28;115032;-63
2020/12/17 00:23:15;;;;;;;17.95;10.90;;;;;;;6.03;71.49;101620.53;685826;28;45189;-61
2020/12/17 00:23:37;;;;;;;17.80;10.75;;;;;;;6.03;71.32;101612.50;687024;28;22414;-63
2020/12/17 00:23:58;;;;;;;17.08;10.63;;;;;;;6.05;71.45;101615.91;687018;28;23493;-63
2020/12/17 00:24:20;;;;;;;18.17;10.70;;;;;;;6.06;71.40;101622.13;686355;28;44376;-63
2020/12/17 00:24:41;;;;;;;16.15;10.55;;;;;;;6.06;71.47;101619.44;685975;28;22373;-61
2020/12/17 00:25:03;;;;;;;15.23;10.38;;;;;;;6.06;71.55;101617.59;682017;28;46338;-63
2020/12/17 00:25:25;;;;;;;17.80;11.27;;;;;;;6.06;71.58;101622.97;682372;28;45231;-64
2020/12/17 00:25:47;;;;;;;16.73;11.18;;;;;;;6.09;71.43;101613.84;682509;28;44429;-64
2020/12/17 00:26:11;;;;;;;17.15;10.85;;;;;;;6.09;71.19;101617.34;682408;28;46292;-63
2020/12/17 00:26:33;;;;;;;17.00;11.02;;;;;;;6.06;71.13;101620.28;680983;28;92034;-62
2020/12/17 00:26:54;;;;;;;17.02;10.52;;;;;;;6.03;71.22;101617.00;683104;28;22396;-63
2020/12/17 00:27:15;;;;;;;17.52;10.75;;;;;;;6.02;71.25;101605.44;682684;28;46166;-62
2020/12/17 00:27:38;;;;;;;18.13;10.57;;;;;;;6.01;71.50;101610.94;683327;28;21526;-63
2020/12/17 00:27:59;;;;;;;18.60;10.93;;;;;;;6.01;71.37;101614.47;681956;28;67325;-61
2020/12/17 00:28:21;;;;;;;15.95;10.45;;;;;;;6.00;71.71;101611.91;683230;28;22396;-63
2020/12/17 00:28:42;;;;;;;15.88;10.43;;;;;;;6.02;71.12;101620.66;683355;28;21547;-61
2020/12/17 00:29:03;;;;;;;15.65;10.25;;;;;;;6.00;71.64;101620.78;682443;28;44363;-63
2020/12/17 00:29:25;;;;;;;18.50;10.68;;;;;;;6.01;71.68;101617.13;683468;28;21554;-61
2020/12/17 00:29:46;;;;;;;18.15;11.40;;;;;;;5.98;71.69;101614.72;683359;28;21560;-62
2020/12/17 00:30:09;;;;;;;17.95;10.90;;;;;;;6.01;71.69;101617.13;682363;28;46327;-63
2020/12/17 00:30:31;;;;;;;18.85;11.55;;;;;;;6.02;71.51;101618.84;683893;28;1132;-62
2020/12/17 00:30:52;;;;;;;15.82;10.70;;;;;;;6.02;71.42;101617.97;682673;28;41430;-64
2020/12/17 00:31:16;;;;;;;18.30;11.32;;;;;;;6.03;71.37;101617.00;684222;28;993;-63
2020/12/17 00:31:37;;;;;;;18.15;10.88;;;;;;;6.03;71.36;101625.91;681063;28;92351;-64
2020/12/17 00:31:58;;;;;;;18.45;10.85;;;;;;;6.04;71.37;101614.22;683561;28;17495;-63
2020/12/17 00:32:20;;;;;;;17.98;10.55;;;;;;;6.04;71.18;101622.25;683679;28;22584;-64
2020/12/17 00:32:42;;;;;;;18.10;10.27;;;;;;;6.04;71.20;101614.22;682976;28;44665;-63
2020/12/17 00:33:03;;;;;;;16.75;10.63;;;;;;;6.06;71.42;101624.81;682560;28;46292;-64
2020/12/17 00:33:25;;;;;;;17.20;11.05;;;;;;;6.05;71.36;101620.41;683361;28;23488;-63
2020/12/17 00:33:47;;;;;;;17.67;11.35;;;;;;;6.05;71.40;101620.41;683423;28;21343;-63
2020/12/17 00:34:08;;;;;;;17.00;10.63;;;;;;;6.05;71.47;101618.59;681972;28;68472;-64
2020/12/17 00:34:29;;;;;;;16.58;10.52;;;;;;;6.06;71.68;101616.75;683608;28;23430;-64
2020/12/17 00:34:51;;;;;;;16.77;10.88;;;;;;;6.07;71.38;101616.63;684112;28;22825;-64
2020/12/17 00:35:13;;;;;;;16.90;10.88;;;;;;;6.08;71.31;101621.03;685726;28;23595;-63
2020/12/17 00:35:34;;;;;;;15.60;10.48;;;;;;;6.06;71.29;101620.28;684590;28;67393;-63
2020/12/17 00:35:56;;;;;;;18.67;11.20;;;;;;;6.07;71.11;101619.31;685828;28;23428;-65
2020/12/17 00:36:18;;;;;;;16.58;10.98;;;;;;;6.03;71.63;101611.66;684494;28;45281;-64
2020/12/17 00:36:39;;;;;;;15.73;10.73;;;;;;;6.01;71.61;101610.94;685920;28;23578;-63
2020/12/17 00:37:01;;;;;;;17.83;10.73;;;;;;;5.99;71.49;101612.88;684909;28;44397;-62
2020/12/17 00:37:22;;;;;;;16.75;10.70;;;;;;;5.99;71.58;101611.06;685946;28;21520;-63
2020/12/17 00:37:43;;;;;;;17.75;10.50;;;;;;;6.00;71.94;101609.22;685105;28;46332;-63
2020/12/17 00:38:04;;;;;;;17.33;10.45;;;;;;;6.00;71.86;101609.22;685620;28;22422;-63
2020/12/17 00:38:26;;;;;;;15.85;10.48;;;;;;;6.00;71.75;101615.44;686220;28;22466;-64
2020/12/17 00:38:48;;;;;;;16.65;10.95;;;;;;;6.00;72.06;101603.84;685196;28;46392;-64
2020/12/17 00:39:09;;;;;;;17.27;10.88;;;;;;;6.00;71.83;101618.09;685963;28;22475;-64
2020/12/17 00:39:30;;;;;;;18.02;10.63;;;;;;;6.03;71.65;101614.34;685128;28;44400;-64
2020/12/17 00:39:52;;;;;;;16.67;10.23;;;;;;;6.03;71.89;101612.50;685868;28;21551;-64
2020/12/17 00:40:15;;;;;;;16.15;10.55;;;;;;;6.01;72.32;101611.78;685048;28;44400;-64
2020/12/17 00:40:37;;;;;;;17.20;10.85;;;;;;;6.02;72.20;101608.13;685217;28;46330;-64
2020/12/17 00:40:59;;;;;;;15.68;10.63;;;;;;;6.04;72.13;101608.00;684366;28;69424;-65
2020/12/17 00:41:20;;;;;;;17.30;10.75;;;;;;;6.02;71.93;101608.13;685434;28;46351;-64
2020/12/17 00:41:42;;;;;;;18.02;10.65;;;;;;;6.00;72.06;101610.06;686259;28;19362;-63
2020/12/17 00:42:03;;;;;;;18.25;11.18;;;;;;;6.04;71.92;101608.00;686341;28;13735;-64
2020/12/17 00:42:25;;;;;;;16.98;11.10;;;;;;;6.03;71.95;101601.75;685149;28;46392;-64
2020/12/17 00:42:47;;;;;;;16.00;10.02;;;;;;;6.02;71.46;101609.94;685220;28;45271;-64
2020/12/17 00:43:08;;;;;;;17.92;10.77;;;;;;;6.02;71.53;101608.13;689543;28;21498;-64
2020/12/17 00:43:29;;;;;;;18.10;10.55;;;;;;;6.05;71.67;101613.25;689085;28;46241;-64
2020/12/17 00:43:50;;;;;;;17.13;10.85;;;;;;;6.03;71.89;101607.13;689449;28;23508;-64
2020/12/17 00:44:12;;;;;;;17.00;10.80;;;;;;;5.99;71.52;101605.69;689348;28;21540;-64
2020/12/17 00:44:33;;;;;;;18.08;11.05;;;;;;;6.01;71.69;101603.72;688793;28;44423;-63
2020/12/17 00:44:55;;;;;;;18.60;10.70;;;;;;;6.00;71.57;101606.53;687506;28;22403;-64
2020/12/17 00:45:16;;;;;;;17.15;10.75;;;;;;;6.00;71.64;101607.38;683074;28;22454;-63
2020/12/17 00:45:37;;;;;;;16.90;10.93;;;;;;;6.02;71.45;101600.09;682596;28;45296;-64
2020/12/17 00:45:59;;;;;;;17.25;10.73;;;;;;;6.03;71.77;101603.59;683244;28;22398;-64
2020/12/17 00:46:20;;;;;;;16.17;10.82;;;;;;;6.00;71.75;101602.00;682259;28;47078;-64
2020/12/17 00:46:42;;;;;;;16.73;10.70;;;;;;;6.00;71.50;101602.00;683794;28;6880;-64
2020/12/17 00:47:03;;;;;;;17.38;10.82;;;;;;;6.02;71.20;101605.44;683715;28;1314;-64
2020/12/17 00:47:28;;;;;;;16.33;11.10;;;;;;;6.03;71.40;101600.91;683289;28;22729;-65
2020/12/17 00:47:49;;;;;;;17.08;11.05;;;;;;;6.04;71.74;101606.16;680526;28;113549;-62
2020/12/17 00:48:11;;;;;;;16.48;10.43;;;;;;;6.07;71.50;101605.91;682370;28;45231;-64
2020/12/17 00:48:33;;;;;;;16.45;10.98;;;;;;;6.04;71.57;101608.00;684798;28;44867;-64
2020/12/17 00:48:54;;;;;;;16.92;10.70;;;;;;;6.06;71.58;101606.88;684937;28;45975;-65
2020/12/17 00:49:15;;;;;;;16.45;10.65;;;;;;;6.05;71.80;101604.31;685671;28;21366;-64
2020/12/17 00:49:37;;;;;;;16.73;11.02;;;;;;;6.03;71.56;101608.97;685709;28;22407;-63
2020/12/17 00:49:59;;;;;;;16.85;10.50;;;;;;;6.01;71.56;101606.41;684883;28;45140;-63
2020/12/17 00:50:20;;;;;;;17.02;10.35;;;;;;;6.04;71.54;101608.84;685060;28;21566;-63
2020/12/17 00:50:41;;;;;;;18.17;11.07;;;;;;;6.05;71.27;101610.56;683289;28;22477;-64
2020/12/17 00:51:02;;;;;;;16.70;10.60;;;;;;;6.04;71.33;101605.31;682957;28;32267;-64
2020/12/17 00:51:24;;;;;;;16.40;10.68;;;;;;;6.06;71.28;101609.56;683464;28;22413;-64
2020/12/17 00:51:45;;;;;;;16.63;10.52;;;;;;;6.06;71.41;101601.50;682438;28;46321;-64
2020/12/17 00:52:07;;;;;;;18.55;10.65;;;;;;;6.09;71.53;101614.66;683420;28;14397;-63
2020/12/17 00:52:28;;;;;;;17.02;10.40;;;;;;;6.09;71.46;101614.66;684036;28;932;-64
2020/12/17 00:52:50;;;;;;;17.00;10.50;;;;;;;6.10;71.47;101613.69;682497;28;46577;-64
2020/12/17 00:53:12;;;;;;;16.98;10.60;;;;;;;6.10;71.39;101612.88;683989;28;922;-63
2020/12/17 00:53:33;;;;;;;16.08;10.73;;;;;;;6.10;71.46;101616.38;682556;28;41342;-63
2020/12/17 00:53:55;;;;;;;15.48;10.60;;;;;;;6.10;71.21;101615.53;684082;28;906;-65
2020/12/17 00:54:17;;;;;;;15.90;10.70;;;;;;;6.09;70.86;101616.50;683290;28;22513;-63
2020/12/17 00:54:39;;;;;;;17.50;10.57;;;;;;;6.08;71.03;101613.00;683113;28;30777;-64
2020/12/17 00:55:03;;;;;;;16.00;10.38;;;;;;;6.09;70.89;101608.47;684938;28;13262;-64
2020/12/17 00:55:24;;;;;;;16.23;10.80;;;;;;;6.09;70.91;101619.19;685873;28;22275;-64
2020/12/17 00:55:47;;;;;;;16.27;11.00;;;;;;;6.10;70.93;101619.06;685993;28;18047;-64
2020/12/17 00:56:08;;;;;;;17.40;10.93;;;;;;;6.10;70.91;101611.03;685189;28;46387;-64
2020/12/17 00:56:29;;;;;;;15.63;10.40;;;;;;;6.10;70.76;101621.75;686401;28;11293;-64
2020/12/17 00:56:50;;;;;;;16.02;10.55;;;;;;;6.10;71.08;101613.69;684787;28;45999;-63
2020/12/17 00:57:12;;;;;;;16.63;10.57;;;;;;;6.10;70.68;101611.03;685740;28;21375;-65
2020/12/17 00:57:34;;;;;;;18.25;11.10;;;;;;;6.08;70.88;101613.00;685130;28;45488;-64
2020/12/17 00:57:55;;;;;;;16.70;11.10;;;;;;;6.07;71.15;101611.28;685785;28;23511;-63
2020/12/17 00:58:17;;;;;;;17.33;11.07;;;;;;;6.08;71.01;101615.66;685535;28;38000;-64
2020/12/17 00:58:38;;;;;;;18.13;11.30;;;;;;;6.06;71.71;101617.59;685884;28;23480;-64
2020/12/17 00:58:59;;;;;;;19.05;10.98;;;;;;;6.06;71.48;101619.44;685072;28;46250;-64
2020/12/17 00:59:21;;;;;;;20.10;11.13;;;;;;;6.08;71.55;101615.66;686680;28;9161;-63
2020/12/17 00:59:42;;;;;;;18.67;10.93;;;;;;;6.09;71.39;101621.88;686265;28;13466;-64
2020/12/17 01:00:05;;;;;;;18.20;11.10;;;;;;;6.08;71.05;101623.72;685297;28;44691;-63
2020/12/17 01:00:26;;;;;;;14.95;10.35;;;;;;;6.08;71.00;101617.47;684486;28;69507;-65
2020/12/17 01:00:47;;;;;;;17.10;10.43;;;;;;;6.08;71.06;101617.47;684951;28;44482;-63
2020/12/17 01:01:09;;;;;;;17.92;11.07;;;;;;;6.08;70.87;101620.16;686163;28;22214;-63
2020/12/17 01:01:30;;;;;;;18.67;10.88;;;;;;;6.11;71.05;101627.94;686115;28;23498;-65
2020/12/17 01:01:52;;;;;;;17.05;10.77;;;;;;;6.11;71.27;101620.78;685304;28;38650;-64
2020/12/17 01:02:13;;;;;;;17.70;11.10;;;;;;;6.08;71.21;101618.34;686613;28;3206;-64
2020/12/17 01:02:35;;;;;;;17.92;10.93;;;;;;;6.10;71.25;101628.94;686080;28;21369;-64
2020/12/17 01:02:57;;;;;;;17.38;10.50;;;;;;;6.11;71.15;101618.09;684904;28;46275;-64
2020/12/17 01:03:18;;;;;;;16.70;10.90;;;;;;;6.11;70.85;101626.16;685965;28;21511;-64
2020/12/17 01:03:40;;;;;;;16.17;10.23;;;;;;;6.11;70.86;101622.59;685688;28;22408;-64
2020/12/17 01:04:01;;;;;;;17.95;11.18;;;;;;;6.10;70.94;101628.94;685382;28;46357;-64
2020/12/17 01:04:23;;;;;;;17.70;11.07;;;;;;;6.11;70.81;101622.59;685011;28;45266;-64
2020/12/17 01:04:44;;;;;;;18.52;10.98;;;;;;;6.11;70.71;101619.91;685962;28;22471;-61
2020/12/17 01:05:06;;;;;;;16.48;10.82;;;;;;;6.07;71.05;101622.00;683138;28;23486;-64
2020/12/17 01:05:27;;;;;;;16.50;11.00;;;;;;;6.06;70.92;101620.28;681699;28;69256;-64
2020/12/17 01:05:49;;;;;;;16.35;10.60;;;;;;;6.07;71.04;101618.47;683143;28;23452;-63
2020/12/17 01:06:10;;;;;;;17.13;11.02;;;;;;;6.08;71.19;101614.78;684009;28;21948;-64
2020/12/17 01:06:32;;;;;;;17.25;11.18;;;;;;;6.06;71.12;101619.44;683507;28;44561;-64
2020/12/17 01:06:53;;;;;;;16.38;10.80;;;;;;;6.06;71.00;101622.97;684255;28;21559;-62
2020/12/17 01:07:14;;;;;;;15.63;10.65;;;;;;;6.08;71.03;101621.03;684181;28;22435;-64
2020/12/17 01:07:35;;;;;;;17.13;11.35;;;;;;;6.09;70.87;101622.72;683681;28;46302;-62
2020/12/17 01:07:57;;;;;;;17.27;10.88;;;;;;;6.09;71.01;101625.41;684227;28;22762;-64
2020/12/17 01:08:19;;;;;;;18.95;10.95;;;;;;;6.10;70.71;101626.28;682457;28;45242;-63
2020/12/17 01:08:40;;;;;;;18.67;10.77;;;;;;;6.09;70.86;101616.50;683177;28;22432;-63
2020/12/17 01:09:01;;;;;;;16.27;10.40;;;;;;;6.09;71.04;101621.88;683212;28;18580;-64
2020/12/17 01:09:23;;;;;;;16.75;10.50;;;;;;;6.11;70.76;101611.88;682475;28;46385;-64
2020/12/17 01:09:44;;;;;;;17.23;11.00;;;;;;;6.07;70.81;101611.28;683441;28;22510;-64
2020/12/17 01:10:06;;;;;;;16.40;10.98;;;;;;;6.08;70.86;101604.06;682343;28;44392;-62
2020/12/17 01:10:27;;;;;;;16.83;10.70;;;;;;;6.11;71.25;101615.41;683466;28;22385;-64
2020/12/17 01:10:50;;;;;;;17.85;11.43;;;;;;;6.13;71.08;101609.94;682391;28;44379;-64
2020/12/17 01:11:11;;;;;;;16.92;10.85;;;;;;;6.12;71.17;101617.09;682340;28;46329;-63
2020/12/17 01:11:33;;;;;;;17.08;10.63;;;;;;;6.13;71.16;101610.78;682383;28;46225;-64
2020/12/17 01:11:54;;;;;;;17.80;11.13;;;;;;;6.15;71.02;101610.66;683461;28;22423;-64
2020/12/17 01:12:15;;;;;;;16.98;10.60;;;;;;;6.13;71.25;101616.13;683399;28;22399;-63
2020/12/17 01:12:39;;;;;;;16.35;10.68;;;;;;;6.10;70.83;101615.53;682366;28;46329;-64
2020/12/17 01:13:00;;;;;;;17.67;11.00;;;;;;;6.09;70.91;101611.16;682102;28;50727;-64
2020/12/17 01:13:22;;;;;;;19.50;11.35;;;;;;;6.05;71.11;101610.56;683126;28;22387;-64
2020/12/17 01:13:43;;;;;;;19.10;10.88;;;;;;;6.06;71.45;101601.50;683248;28;22109;-64
2020/12/17 01:14:05;;;;;;;16.27;10.52;;;;;;;6.08;71.23;101607.63;682377;28;46127;-64
2020/12/17 01:14:26;;;;;;;16.38;10.73;;;;;;;6.09;71.30;101597.75;683416;28;22383;-63
2020/12/17 01:14:47;;;;;;;16.27;10.73;;;;;;;6.10;71.17;101599.44;683326;28;22421;-64
2020/12/17 01:15:09;;;;;;;16.85;10.77;;;;;;;6.08;71.24;101607.63;684117;28;46341;-64
2020/12/17 01:15:30;;;;;;;17.90;11.13;;;;;;;6.08;71.26;101607.63;686084;28;21738;-63
2020/12/17 01:15:51;;;;;;;17.02;10.73;;;;;;;6.10;71.31;101594.94;685358;28;46351;-64
2020/12/17 01:16:13;;;;;;;17.98;10.80;;;;;;;6.10;71.51;101596.78;685763;28;22408;-63
2020/12/17 01:16:34;;;;;;;16.05;10.65;;;;;;;6.07;71.19;101605.91;685872;28;22383;-63
2020/12/17 01:16:56;;;;;;;15.02;10.07;;;;;;;6.10;71.30;101608.34;684963;28;46339;-64
2020/12/17 01:17:17;;;;;;;15.05;10.13;;;;;;;6.10;71.04;101607.50;685835;28;22525;-63
2020/12/17 01:17:38;;;;;;;15.30;9.98;;;;;;;6.07;71.00;101605.06;685892;28;23492;-63
2020/12/17 01:18:00;;;;;;;16.13;10.63;;;;;;;6.05;71.30;101607.00;685021;28;45218;-64
2020/12/17 01:18:21;;;;;;;15.50;10.48;;;;;;;6.06;71.16;101604.19;686256;28;21773;-64
2020/12/17 01:18:42;;;;;;;16.75;9.95;;;;;;;6.06;70.98;101606.88;685288;28;46207;-64
2020/12/17 01:19:04;;;;;;;16.02;10.27;;;;;;;6.08;71.30;101607.63;686062;28;23482;-64
2020/12/17 01:19:26;;;;;;;15.45;10.55;;;;;;;6.05;70.98;101590.91;684938;28;46345;-64
2020/12/17 01:19:47;;;;;;;15.80;10.25;;;;;;;6.05;70.91;101605.19;685921;28;22374;-64
2020/12/17 01:20:08;;;;;;;15.32;10.27;;;;;;;6.05;71.40;101601.63;685094;28;44397;-64
2020/12/17 01:20:30;;;;;;;15.80;10.40;;;;;;;6.06;71.63;101601.50;685906;28;22420;-64
2020/12/17 01:20:51;;;;;;;14.93;10.05;;;;;;;6.05;71.65;101602.50;686031;28;22330;-64
2020/12/17 01:21:13;;;;;;;16.60;10.57;;;;;;;6.05;71.58;101594.47;685303;28;45246;-64
2020/12/17 01:21:34;;;;;;;16.00;9.77;;;;;;;6.05;71.49;101593.59;685854;28;21562;-62
2020/12/17 01:21:55;;;;;;;15.18;10.18;;;;;;;6.03;71.63;101592.88;685378;28;23647;-64
2020/12/17 01:22:16;;;;;;;15.98;10.18;;;;;;;6.02;71.66;101593.84;682646;28;34463;-64
2020/12/17 01:22:38;;;;;;;16.85;10.43;;;;;;;6.03;71.69;101595.56;683041;28;22502;-63
2020/12/17 01:22:59;;;;;;;15.90;10.73;;;;;;;6.02;71.30;101604.56;682114;28;45187;-64
2020/12/17 01:23:21;;;;;;;16.58;10.75;;;;;;;6.04;71.44;101595.44;683126;28;22410;-64
2020/12/17 01:23:42;;;;;;;16.27;11.00;;;;;;;6.05;71.41;101604.31;684062;28;2501;-64
2020/12/17 01:24:03;;;;;;;18.50;10.30;;;;;;;6.03;71.19;101598.25;686073;28;7585;-64
2020/12/17 01:24:25;;;;;;;16.30;10.40;;;;;;;6.04;71.33;101603.47;684992;28;45315;-62
2020/12/17 01:24:46;;;;;;;15.20;9.90;;;;;;;6.01;71.18;101603.72;684870;28;45992;-63
2020/12/17 01:25:08;;;;;;;15.98;10.52;;;;;;;6.02;71.15;101592.03;685207;28;16700;-64
2020/12/17 01:25:29;;;;;;;14.75;10.48;;;;;;;6.03;71.35;101596.41;685646;28;23482;-64
2020/12/17 01:25:51;;;;;;;16.15;10.68;;;;;;;6.06;71.16;101606.03;685748;28;20347;-64
2020/12/17 01:26:13;;;;;;;17.63;10.88;;;;;;;6.05;71.21;101591.78;684724;28;54408;-63
2020/12/17 01:26:34;;;;;;;18.60;11.10;;;;;;;6.09;71.01;101597.75;685627;28;22461;-63
2020/12/17 01:26:56;;;;;;;15.73;10.50;;;;;;;6.08;71.10;101596.91;684912;28;46442;-63
2020/12/17 01:27:18;;;;;;;17.33;10.77;;;;;;;6.09;70.90;101600.41;686038;28;18410;-64
2020/12/17 01:27:39;;;;;;;15.32;9.95;;;;;;;6.08;70.89;101596.91;685963;28;22387;-63
2020/12/17 01:28:01;;;;;;;14.10;9.93;;;;;;;6.10;70.95;101594.94;685370;28;39683;-63
2020/12/17 01:28:22;;;;;;;15.68;9.80;;;;;;;6.10;70.94;101594.09;685752;28;23467;-63
2020/12/17 01:28:44;;;;;;;16.55;10.60;;;;;;;6.08;71.15;101587.97;687782;28;22447;-64
2020/12/17 01:29:05;;;;;;;16.67;10.27;;;;;;;6.07;71.33;101587.13;687321;28;46400;-64
2020/12/17 01:29:26;;;;;;;15.93;10.10;;;;;;;6.06;71.14;101587.25;688429;28;23401;-62
2020/12/17 01:29:47;;;;;;;17.40;10.88;;;;;;;6.05;71.16;101591.78;688300;28;21823;-63
2020/12/17 01:30:09;;;;;;;16.35;10.20;;;;;;;6.03;71.53;101592.88;688073;28;23398;-63
2020/12/17 01:30:30;;;;;;;16.73;10.68;;;;;;;6.02;71.34;101592.03;687822;28;23533;-64
2020/12/17 01:30:52;;;;;;;14.48;10.07;;;;;;;6.05;71.24;101589.09;686900;28;961;-63
2020/12/17 01:31:15;;;;;;;15.95;10.65;;;;;;;6.06;71.14;101582.75;685372;28;23480;-64
2020/12/17 01:31:36;;;;;;;15.70;10.43;;;;;;;6.07;70.88;101581.78;684999;28;46327;-64
2020/12/17 01:31:59;;;;;;;15.60;9.90;;;;;;;6.04;71.08;101582.03;686050;28;946;-64
2020/12/17 01:32:20;;;;;;;16.05;10.35;;;;;;;6.02;71.16;101584.00;686474;28;826;-62
2020/12/17 01:32:42;;;;;;;16.80;10.40;;;;;;;6.00;71.07;101580.56;685234;28;34708;-64
2020/12/17 01:33:03;;;;;;;16.98;10.63;;;;;;;6.01;71.25;101584.97;686682;28;10426;-64
2020/12/17 01:33:25;;;;;;;16.98;10.77;;;;;;;6.04;71.34;101587.38;688276;28;21568;-63
2020/12/17 01:33:46;;;;;;;15.40;10.63;;;;;;;6.05;71.20;101586.41;687777;28;36296;-63
2020/12/17 01:34:07;;;;;;;15.45;10.05;;;;;;;6.06;71.18;101587.25;688732;28;949;-64
2020/12/17 01:34:28;;;;;;;15.23;9.90;;;;;;;6.06;71.00;101588.09;688734;28;10090;-64
2020/12/17 01:34:50;;;;;;;15.45;10.25;;;;;;;6.08;70.90;101590.66;687081;28;46290;-64
2020/12/17 01:35:12;;;;;;;14.93;10.25;;;;;;;6.08;70.85;101588.84;684511;28;44170;-63
2020/12/17 01:35:33;;;;;;;15.40;10.45;;;;;;;6.09;70.71;101585.16;685982;28;21523;-62
2020/12/17 01:35:54;;;;;;;16.25;10.48;;;;;;;6.10;71.01;101586.03;684960;28;45318;-61
2020/12/17 01:36:16;;;;;;;15.85;10.75;;;;;;;6.11;71.16;101588.59;685654;28;21515;-64
2020/12/17 01:36:38;;;;;;;16.55;10.85;;;;;;;6.12;71.04;101584.91;685807;28;22493;-63
2020/12/17 01:36:59;;;;;;;16.48;10.48;;;;;;;6.14;70.71;101587.47;684799;28;45268;-63
2020/12/17 01:37:20;;;;;;;17.10;10.35;;;;;;;6.12;70.69;101590.28;685950;28;22409;-64
2020/12/17 01:37:42;;;;;;;18.08;10.52;;;;;;;6.12;70.58;101579.56;685807;28;23470;-63
2020/12/17 01:38:03;;;;;;;14.90;9.73;;;;;;;6.13;70.57;101588.47;684864;28;45347;-64
2020/12/17 01:38:24;;;;;;;16.08;9.85;;;;;;;6.12;70.77;101584.91;685827;28;22432;-64
2020/12/17 01:38:45;;;;;;;17.33;10.80;;;;;;;6.12;70.94;101582.22;685791;28;22423;-64
2020/12/17 01:39:07;;;;;;;17.23;10.93;;;;;;;6.13;71.04;101586.63;685090;28;45610;-64
2020/12/17 01:39:28;;;;;;;16.10;10.80;;;;;;;6.13;71.05;101581.25;685866;28;22440;-64
2020/12/17 01:39:50;;;;;;;16.48;10.57;;;;;;;6.12;70.72;101581.41;684980;28;44369;-64
2020/12/17 01:40:12;;;;;;;17.05;10.07;;;;;;;6.11;70.76;101582.38;685067;28;43925;-63
2020/12/17 01:40:33;;;;;;;17.80;10.25;;;;;;;6.10;70.78;101586.03;685908;28;22426;-63